Time;durP1;ratioP1;P1;durP2;ratioP2;P2;SDS_P1;SDS_P2;PMS_P1;PMS_P2;Temp;Humidity;BMP_temperature;BMP_pressure;BME280_temperature;BME280_humidity;BME280_pressure;Samples;Min_cycle;Max_cycle;Signal;HPM_P1;HPM_P2
2022/07/12 00:02:12;;;;;;;1.47;1.35;;;;;;;14.26;100.00;99469.27;1720730;83;21083;-69
2022/07/12 00:04:38;;;;;;;1.72;1.20;;;;;;;14.33;100.00;99474.55;1720796;83;21142;-70
2022/07/12 00:07:05;;;;;;;2.45;1.40;;;;;;;14.32;100.00;99486.58;1721006;82;21591;-70
2022/07/12 00:09:31;;;;;;;3.95;1.32;;;;;;;14.34;100.00;99488.19;1720882;82;21238;-70
2022/07/12 00:11:58;;;;;;;4.62;1.40;;;;;;;14.36;100.00;99487.62;1720714;82;21023;-68
2022/07/12 00:14:25;;;;;;;4.15;1.70;;;;;;;14.36;100.00;99490.27;1720807;83;21596;-69
2022/07/12 00:16:52;;;;;;;3.45;1.40;;;;;;;14.33;100.00;99477.20;1720877;83;21642;-69
2022/07/12 00:19:20;;;;;;;3.90;1.37;;;;;;;14.28;100.00;99473.98;1720884;82;21074;-69
2022/07/12 00:21:46;;;;;;;1.67;1.27;;;;;;;14.29;100.00;99471.73;1720840;82;21398;-68
2022/07/12 00:24:13;;;;;;;5.87;1.40;;;;;;;14.25;100.00;99476.36;1720853;83;21084;-71
2022/07/12 00:26:40;;;;;;;5.60;1.40;;;;;;;14.23;100.00;99474.76;1720598;83;21063;-69
2022/07/12 00:29:06;;;;;;;2.83;1.50;;;;;;;14.22;100.00;99479.70;1720692;82;21086;-68
2022/07/12 00:31:34;;;;;;;2.77;1.32;;;;;;;14.21;100.00;99483.27;1720770;82;21395;-70
2022/07/12 00:34:01;;;;;;;1.85;1.15;;;;;;;14.20;100.00;99481.58;1720569;82;22253;-69
2022/07/12 00:36:28;;;;;;;1.47;1.22;;;;;;;14.16;100.00;99476.09;1720333;82;21668;-68
2022/07/12 00:38:56;;;;;;;5.33;1.30;;;;;;;14.14;100.00;99483.28;1720573;82;21511;-69
2022/07/12 00:41:23;;;;;;;6.20;1.30;;;;;;;14.14;100.00;99483.28;1720241;82;21123;-68
2022/07/12 00:43:49;;;;;;;2.52;1.40;;;;;;;14.09;100.00;99479.59;1720719;83;21573;-69
2022/07/12 00:46:17;;;;;;;3.02;1.27;;;;;;;14.07;100.00;99484.13;1720482;83;21510;-69
2022/07/12 00:48:44;;;;;;;3.50;1.60;;;;;;;14.06;100.00;99488.58;1720616;83;21070;-69
2022/07/12 00:51:11;;;;;;;1.62;1.10;;;;;;;14.04;100.00;99490.47;1720878;82;21031;-69
2022/07/12 00:53:38;;;;;;;4.67;1.72;;;;;;;14.01;100.00;99482.72;1720869;82;21089;-69
2022/07/12 00:56:05;;;;;;;2.33;1.55;;;;;;;13.97;100.00;99486.50;1685770;85;21080;-70
2022/07/12 00:58:32;;;;;;;4.37;1.30;;;;;;;13.96;100.00;99488.75;1720611;82;21154;-69
2022/07/12 01:00:58;;;;;;;7.55;1.37;;;;;;;13.94;100.00;99481.40;1720544;82;21049;-69
2022/07/12 01:03:26;;;;;;;5.05;1.70;;;;;;;13.93;100.00;99487.62;1720721;83;21078;-68
2022/07/12 01:05:53;;;;;;;1.82;1.30;;;;;;;13.91;100.00;99481.56;1720790;83;21045;-69
2022/07/12 01:08:20;;;;;;;2.60;1.57;;;;;;;13.89;100.00;99481.28;1720684;83;21069;-69
2022/07/12 01:10:51;;;;;;;2.27;1.40;;;;;;;13.85;100.00;99475.34;1720552;83;21218;-69
2022/07/12 01:13:18;;;;;;;3.25;1.20;;;;;;;13.85;100.00;99477.52;1720628;83;21545;-70
2022/07/12 01:15:47;;;;;;;4.03;1.70;;;;;;;13.84;100.00;99480.24;1720779;82;21014;-69
2022/07/12 01:18:14;;;;;;;7.17;1.30;;;;;;;13.85;100.00;99475.34;1702851;83;21077;-69
2022/07/12 01:20:42;;;;;;;2.00;1.30;;;;;;;13.86;100.00;99473.06;1681360;84;21061;-70
2022/07/12 01:23:09;;;;;;;1.20;1.10;;;;;;;13.85;100.00;99476.19;1686000;85;21104;-69
2022/07/12 01:25:36;;;;;;;3.30;1.10;;;;;;;13.87;100.00;99480.52;1685641;85;21060;-69
2022/07/12 01:28:03;;;;;;;4.78;1.87;;;;;;;13.84;100.00;99482.89;1720877;83;21045;-68
2022/07/12 01:30:30;;;;;;;3.40;1.15;;;;;;;13.85;100.00;99482.80;1720715;83;21088;-68
2022/07/12 01:32:57;;;;;;;3.25;1.47;;;;;;;13.87;100.00;99471.27;1720659;83;21057;-68
2022/07/12 01:35:23;;;;;;;3.15;1.40;;;;;;;13.84;100.00;99467.85;1720605;83;21120;-70
2022/07/12 01:37:50;;;;;;;3.40;1.30;;;;;;;13.83;100.00;99462.67;1702904;83;21569;-69
2022/07/12 01:40:17;;;;;;;1.40;1.20;;;;;;;13.84;100.00;99461.72;1726011;83;21046;-70
2022/07/12 01:42:46;;;;;;;2.98;1.22;;;;;;;13.85;100.00;99463.44;1691481;84;21036;-68
2022/07/12 01:45:13;;;;;;;5.62;1.30;;;;;;;13.84;100.00;99464.36;1691257;84;21057;-69
2022/07/12 01:47:41;;;;;;;4.25;1.20;;;;;;;13.88;100.00;99456.62;1691008;84;21249;-70
2022/07/12 01:50:09;;;;;;;3.00;1.15;;;;;;;13.83;100.00;99460.03;1690915;84;21643;-69
2022/07/12 01:52:38;;;;;;;2.98;1.30;;;;;;;13.84;100.00;99463.04;1691077;84;21092;-69
2022/07/12 01:55:06;;;;;;;2.00;1.30;;;;;;;13.80;100.00;99453.58;1661475;86;21092;-69
2022/07/12 01:57:34;;;;;;;5.08;1.57;;;;;;;13.83;100.00;99462.67;1661515;86;21167;-69
2022/07/12 02:00:04;;;;;;;1.65;1.20;;;;;;;13.81;100.00;99469.38;1661475;86;21231;-68
2022/07/12 02:02:31;;;;;;;1.50;1.32;;;;;;;13.80;100.00;99482.24;1661740;86;21668;-69
2022/07/12 02:05:00;;;;;;;4.55;1.45;;;;;;;13.80;100.00;99478.72;1661794;86;21080;-68
2022/07/12 02:07:28;;;;;;;3.50;1.45;;;;;;;13.75;100.00;99481.64;1661949;86;21065;-69
2022/07/12 02:09:55;;;;;;;3.08;1.55;;;;;;;13.71;100.00;99484.56;1661692;86;21132;-68
2022/07/12 02:12:22;;;;;;;2.52;1.25;;;;;;;13.68;100.00;99488.25;1661486;86;21366;-69
2022/07/12 02:14:49;;;;;;;2.55;1.30;;;;;;;13.66;100.00;99487.97;1661631;86;21085;-68
2022/07/12 02:17:16;;;;;;;3.58;1.27;;;;;;;13.59;100.00;99492.30;1661477;86;21084;-69
2022/07/12 02:19:45;;;;;;;5.03;1.40;;;;;;;13.58;100.00;99489.77;1661752;86;21013;-68
2022/07/12 02:22:11;;;;;;;4.78;1.50;;;;;;;13.54;100.00;99499.66;1661859;86;21080;-70
2022/07/12 02:24:38;;;;;;;2.60;1.27;;;;;;;13.57;100.00;99492.89;1661550;86;21592;-69
2022/07/12 02:27:06;;;;;;;3.27;1.25;;;;;;;13.57;100.00;99492.01;1636990;86;21057;-68
2022/07/12 02:29:37;;;;;;;3.27;1.47;;;;;;;13.58;100.00;99493.73;1661801;86;21064;-69
2022/07/12 02:32:05;;;;;;;3.35;1.20;;;;;;;13.58;100.00;99495.89;1661567;86;21115;-69
2022/07/12 02:34:31;;;;;;;3.90;1.52;;;;;;;13.58;100.00;99485.31;1661674;86;21437;-69
2022/07/12 02:36:58;;;;;;;5.53;1.70;;;;;;;13.60;100.00;99496.66;1661565;86;21263;-70
2022/07/12 02:39:25;;;;;;;8.45;1.45;;;;;;;13.60;100.00;99499.30;1658191;86;21100;-69
2022/07/12 02:41:52;;;;;;;4.95;1.72;;;;;;;13.62;100.00;99504.52;1656702;86;21132;-69
2022/07/12 02:44:19;;;;;;;4.80;1.60;;;;;;;13.62;100.00;99509.33;1656710;86;21101;-69
2022/07/12 02:46:46;;;;;;;1.85;1.40;;;;;;;13.62;100.00;99513.30;1656461;86;21080;-71
2022/07/12 02:49:12;;;;;;;2.25;1.55;;;;;;;13.64;100.00;99515.38;1656788;86;21683;-70
2022/07/12 02:51:39;;;;;;;7.85;2.75;;;;;;;13.64;100.00;99522.00;1656408;86;21093;-68
2022/07/12 02:54:05;;;;;;;8.50;2.87;;;;;;;13.64;100.00;99527.29;1669431;85;21065;-69
2022/07/12 02:56:32;;;;;;;8.05;3.20;;;;;;;13.64;100.00;99527.29;1677925;85;21064;-69
2022/07/12 02:58:58;;;;;;;6.15;2.30;;;;;;;13.59;100.00;99529.33;1677872;85;21112;-69
2022/07/12 03:01:25;;;;;;;3.72;1.50;;;;;;;13.66;100.00;99534.27;1677990;85;21304;-69
2022/07/12 03:03:51;;;;;;;3.75;1.32;;;;;;;13.67;100.00;99534.67;1678286;85;21117;-70
2022/07/12 03:06:18;;;;;;;4.33;1.65;;;;;;;13.69;100.00;99528.34;1678157;85;21112;-71
2022/07/12 03:08:45;;;;;;;2.92;1.40;;;;;;;13.74;100.00;99527.59;1677932;85;21127;-70
2022/07/12 03:11:12;;;;;;;3.20;1.40;;;;;;;13.79;100.00;99520.22;1678166;85;21080;-69
2022/07/12 03:13:39;;;;;;;3.67;1.35;;;;;;;13.84;100.00;99522.59;1679922;85;21253;-69
2022/07/12 03:16:07;;;;;;;5.33;1.55;;;;;;;13.85;100.00;99526.95;1678269;85;21017;-70
2022/07/12 03:18:35;;;;;;;2.58;1.45;;;;;;;13.88;100.00;99521.47;1678350;85;21105;-70
2022/07/12 03:21:01;;;;;;;2.33;1.17;;;;;;;13.90;100.00;99522.23;1678686;85;21132;-68
2022/07/12 03:23:28;;;;;;;2.40;1.52;;;;;;;13.94;100.00;99512.29;1678419;85;21655;-69
2022/07/12 03:25:56;;;;;;;4.08;1.50;;;;;;;13.95;100.00;99513.53;1678289;85;21033;-69
2022/07/12 03:28:25;;;;;;;6.25;2.30;;;;;;;13.95;100.00;99519.30;1678353;85;21088;-69
2022/07/12 03:30:51;;;;;;;4.97;2.12;;;;;;;13.95;100.00;99517.98;1678328;85;21084;-69
2022/07/12 03:33:18;;;;;;;4.90;2.40;;;;;;;13.94;100.00;99523.75;1678341;85;20998;-69
2022/07/12 03:35:45;;;;;;;6.85;2.10;;;;;;;13.91;100.00;99513.33;1678163;85;21072;-69
2022/07/12 03:38:12;;;;;;;3.40;1.90;;;;;;;13.90;100.00;99522.23;1678293;85;21341;-69
2022/07/12 03:40:38;;;;;;;2.67;1.72;;;;;;;13.93;100.00;99522.03;1666366;86;21135;-69
2022/07/12 03:43:05;;;;;;;4.33;2.22;;;;;;;13.94;100.00;99520.23;1666631;86;21044;-69
2022/07/12 03:45:32;;;;;;;3.50;1.50;;;;;;;14.00;100.00;99526.00;1666434;86;21059;-69
2022/07/12 03:47:59;;;;;;;2.95;1.62;;;;;;;14.11;100.00;99529.81;1666788;85;21036;-70
2022/07/12 03:50:26;;;;;;;5.12;1.57;;;;;;;14.20;100.00;99534.55;1666628;85;21535;-69
2022/07/12 03:52:53;;;;;;;5.78;2.00;;;;;;;14.35;100.00;99538.03;1666415;86;21293;-69
2022/07/12 03:55:20;;;;;;;3.98;1.85;;;;;;;14.46;100.00;99537.73;1746055;82;21084;-68
2022/07/12 03:57:48;;;;;;;4.33;1.70;;;;;;;14.52;100.00;99534.35;1747895;82;21025;-70
2022/07/12 04:00:15;;;;;;;5.33;2.30;;;;;;;14.65;100.00;99537.94;1748001;82;21060;-69
2022/07/12 04:02:42;;;;;;;10.85;2.37;;;;;;;14.77;100.00;99536.30;1747870;82;21217;-69
2022/07/12 04:05:09;;;;;;;3.72;1.98;;;;;;;14.92;100.00;99534.48;1747942;82;21100;-69
2022/07/12 04:07:37;;;;;;;2.30;1.50;;;;;;;15.06;100.00;99527.80;1747737;82;21048;-69
2022/07/12 04:10:05;;;;;;;3.08;1.32;;;;;;;15.22;100.00;99532.96;1747797;82;21644;-69
2022/07/12 04:12:32;;;;;;;4.05;1.20;;;;;;;15.38;100.00;99531.48;1747763;82;21099;-68
2022/07/12 04:15:00;;;;;;;2.47;1.57;;;;;;;15.58;100.00;99536.30;1747828;82;21136;-70
2022/07/12 04:17:27;;;;;;;2.47;1.20;;;;;;;15.82;100.00;99546.24;1747903;82;21576;-69
2022/07/12 04:19:53;;;;;;;3.92;1.47;;;;;;;16.00;100.00;99547.64;1748059;82;21532;-69
2022/07/12 04:22:20;;;;;;;2.45;1.25;;;;;;;16.14;100.00;99546.20;1747915;82;21033;-69
2022/07/12 04:24:47;;;;;;;4.40;1.20;;;;;;;16.31;100.00;99550.81;1747862;82;21032;-68
2022/07/12 04:27:14;;;;;;;1.85;1.20;;;;;;;16.48;100.00;99550.49;1747964;82;21128;-70
2022/07/12 04:29:41;;;;;;;2.70;1.12;;;;;;;16.68;100.00;99558.84;1747983;82;21028;-68
2022/07/12 04:32:08;;;;;;;4.10;1.32;;;;;;;16.76;98.79;99556.50;1748201;82;21020;-70
2022/07/12 04:34:35;;;;;;;2.45;0.80;;;;;;;16.79;98.20;99557.63;1747985;82;20997;-70
2022/07/12 04:37:03;;;;;;;2.17;1.15;;;;;;;16.88;97.90;99552.13;1748056;82;21084;-69
2022/07/12 04:39:32;;;;;;;2.08;1.20;;;;;;;16.95;97.27;99556.89;1751024;81;21046;-70
2022/07/12 04:41:58;;;;;;;3.80;1.37;;;;;;;17.01;96.11;99554.28;1755993;81;21040;-69
2022/07/12 04:44:25;;;;;;;4.47;1.70;;;;;;;17.13;98.25;99553.38;1755961;81;21072;-69
2022/07/12 04:46:51;;;;;;;4.25;1.12;;;;;;;17.36;95.63;99553.00;1720076;83;21077;-69
2022/07/12 04:49:18;;;;;;;2.40;1.00;;;;;;;17.60;94.32;99544.17;1720243;83;21040;-69
2022/07/12 04:51:45;;;;;;;3.95;1.00;;;;;;;17.86;93.74;99546.69;1720229;83;21256;-68
2022/07/12 04:54:12;;;;;;;1.35;0.98;;;;;;;18.10;89.76;99547.44;1701396;83;21116;-69
2022/07/12 04:56:38;;;;;;;2.90;1.17;;;;;;;18.35;89.33;99552.20;1691055;84;21048;-69
2022/07/12 04:59:07;;;;;;;3.45;1.30;;;;;;;18.49;86.80;99546.63;1690819;84;21056;-70
2022/07/12 05:01:33;;;;;;;9.38;1.32;;;;;;;18.54;85.41;99543.13;1690872;84;21068;-70
2022/07/12 05:04:00;;;;;;;1.98;1.10;;;;;;;18.62;84.96;99539.84;1690936;84;22115;-69
2022/07/12 05:06:27;;;;;;;1.22;1.00;;;;;;;18.77;84.75;99548.45;1690628;84;21568;-70
2022/07/12 05:08:53;;;;;;;2.45;1.02;;;;;;;18.83;83.07;99553.30;1690938;84;21056;-69
2022/07/12 05:11:20;;;;;;;3.33;1.30;;;;;;;18.83;84.56;99558.64;1690925;84;21119;-71
2022/07/12 05:13:47;;;;;;;2.17;1.20;;;;;;;18.86;82.14;99563.72;1690956;84;21096;-70
2022/07/12 05:16:14;;;;;;;2.10;1.27;;;;;;;18.95;82.54;99555.47;1691175;84;21780;-69
2022/07/12 05:18:41;;;;;;;2.70;1.12;;;;;;;19.15;80.73;99560.52;1691179;84;21060;-70
2022/07/12 05:21:07;;;;;;;2.90;0.98;;;;;;;19.38;80.79;99561.30;1691337;84;21100;-69
2022/07/12 05:23:34;;;;;;;5.08;1.10;;;;;;;19.61;80.91;99562.90;1691212;84;21013;-70
2022/07/12 05:26:01;;;;;;;4.37;1.20;;;;;;;19.89;80.02;99566.79;1690869;84;21048;-71
2022/07/12 05:28:29;;;;;;;2.87;1.32;;;;;;;20.11;79.06;99573.00;1690954;84;21337;-70
2022/07/12 05:30:56;;;;;;;3.40;1.02;;;;;;;19.94;76.20;99563.72;1690951;84;21048;-71
2022/07/12 05:33:23;;;;;;;5.25;1.30;;;;;;;19.85;76.19;99568.52;1690980;84;21021;-70
2022/07/12 05:35:51;;;;;;;3.25;1.10;;;;;;;19.90;76.94;99575.18;1691016;84;21092;-70
2022/07/12 05:38:18;;;;;;;3.98;1.00;;;;;;;20.03;75.77;99571.45;1690863;84;21100;-70
2022/07/12 05:40:45;;;;;;;1.82;1.07;;;;;;;20.06;75.03;99569.84;1681120;84;21141;-69
2022/07/12 05:43:11;;;;;;;2.12;0.90;;;;;;;20.22;74.97;99570.25;1712868;83;21055;-71
2022/07/12 05:45:38;;;;;;;4.78;1.37;;;;;;;20.48;75.13;99567.14;1713003;82;21035;-70
2022/07/12 05:48:05;;;;;;;2.37;1.15;;;;;;;20.79;75.13;99576.00;1712885;83;21023;-70
2022/07/12 05:50:31;;;;;;;2.15;0.90;;;;;;;21.12;71.48;99578.86;1713419;82;21079;-70
2022/07/12 05:55:44;;;;;;;2.90;1.20;;;;;;;21.57;69.22;99579.70;1712793;83;21042;-70
2022/07/12 05:58:11;;;;;;;3.70;1.02;;;;;;;21.70;67.82;99574.58;1678414;85;21077;-71
2022/07/12 06:00:39;;;;;;;5.60;1.15;;;;;;;21.67;67.15;99586.89;1678121;85;21045;-69
2022/07/12 06:03:05;;;;;;;4.62;1.05;;;;;;;21.64;66.60;99579.15;1712982;83;21499;-71
2022/07/12 06:05:32;;;;;;;1.30;0.90;;;;;;;21.76;66.42;99580.69;1678655;85;21930;-69
2022/07/12 06:07:59;;;;;;;3.67;1.10;;;;;;;21.84;66.03;99571.45;1712974;83;21516;-72
2022/07/12 06:10:25;;;;;;;4.45;1.10;;;;;;;21.86;65.80;99579.36;1678611;85;21576;-71
2022/07/12 06:12:53;;;;;;;5.15;1.10;;;;;;;21.74;66.21;99582.66;1713057;83;21046;-70
2022/07/12 06:15:20;;;;;;;2.87;1.00;;;;;;;21.94;67.00;99581.66;1713257;83;21073;-70
2022/07/12 06:17:47;;;;;;;2.37;1.10;;;;;;;22.26;65.18;99580.50;1678565;85;21832;-70
2022/07/12 06:20:14;;;;;;;2.25;0.93;;;;;;;22.49;64.02;99582.84;1713245;83;21049;-70
2022/07/12 06:22:41;;;;;;;6.80;1.50;;;;;;;22.69;62.56;99587.14;1678415;85;21057;-71
2022/07/12 06:25:09;;;;;;;3.05;1.10;;;;;;;22.82;62.39;99590.34;1713394;83;21062;-71
2022/07/12 06:27:35;;;;;;;1.98;0.90;;;;;;;22.69;62.08;99584.46;1678431;85;21068;-70
2022/07/12 06:30:03;;;;;;;4.87;1.37;;;;;;;22.69;62.79;99590.33;1678395;85;21140;-70
2022/07/12 06:32:30;;;;;;;4.53;1.10;;;;;;;22.72;61.57;99594.89;1712941;83;21006;-71
2022/07/12 06:34:57;;;;;;;1.27;0.80;;;;;;;22.92;59.12;99598.84;1678555;85;21084;-70
2022/07/12 06:37:24;;;;;;;3.77;1.22;;;;;;;22.82;59.08;99602.42;1702449;83;21059;-71
2022/07/12 06:39:51;;;;;;;2.62;1.00;;;;;;;22.90;58.22;99599.48;1680090;85;21112;-70
2022/07/12 06:42:17;;;;;;;3.05;0.98;;;;;;;23.11;57.89;99607.32;1720690;82;21088;-70
2022/07/12 06:44:46;;;;;;;2.90;0.95;;;;;;;23.36;56.16;99603.06;1720335;83;21021;-71
2022/07/12 06:47:12;;;;;;;1.35;0.80;;;;;;;23.72;54.03;99612.47;1685924;84;21575;-71
2022/07/12 06:49:39;;;;;;;3.30;0.90;;;;;;;23.97;51.42;99615.78;1720679;83;21030;-71
2022/07/12 06:52:06;;;;;;;1.90;0.98;;;;;;;24.23;50.70;99612.27;1720599;82;21155;-71
2022/07/12 06:54:33;;;;;;;2.30;0.98;;;;;;;24.16;49.84;99620.63;1720541;83;21163;-70
2022/07/12 06:57:00;;;;;;;3.05;1.12;;;;;;;24.04;50.55;99619.53;1720588;83;21046;-71
2022/07/12 06:59:27;;;;;;;1.00;0.80;;;;;;;24.03;51.11;99627.75;1720695;82;21067;-71
2022/07/12 07:01:55;;;;;;;3.02;0.80;;;;;;;23.84;50.45;99623.39;1720949;83;21044;-70
2022/07/12 07:04:22;;;;;;;4.95;1.10;;;;;;;23.34;51.14;99634.61;1721006;83;21015;-69
2022/07/12 07:06:48;;;;;;;2.50;0.80;;;;;;;22.92;51.55;99635.09;1720958;83;21855;-70
2022/07/12 07:09:15;;;;;;;1.85;1.10;;;;;;;22.55;53.37;99634.09;1720590;82;21106;-70
2022/07/12 07:11:42;;;;;;;6.05;1.20;;;;;;;22.33;54.38;99644.64;1720528;82;21015;-70
2022/07/12 07:14:10;;;;;;;2.35;0.90;;;;;;;22.10;54.47;99647.27;1720643;82;21040;-70
2022/07/12 07:16:38;;;;;;;2.27;1.05;;;;;;;21.98;55.76;99642.05;1720788;82;21599;-70
2022/07/12 07:19:07;;;;;;;1.85;0.90;;;;;;;21.80;55.69;99642.41;1720937;83;21146;-71
2022/07/12 07:21:34;;;;;;;2.30;1.07;;;;;;;21.74;55.62;99645.63;1720576;82;21122;-69
2022/07/12 07:24:02;;;;;;;2.85;1.10;;;;;;;21.77;57.74;99642.70;1720816;82;21023;-70
2022/07/12 07:26:30;;;;;;;2.00;1.00;;;;;;;22.17;56.18;99655.93;1720543;82;21051;-69
2022/07/12 07:31:41;;;;;;;1.40;0.62;;;;;;;22.61;53.46;99650.09;1720817;83;21146;-70
2022/07/12 07:34:08;;;;;;;2.20;0.80;;;;;;;22.82;51.56;99652.08;1720919;82;21052;-70
2022/07/12 07:36:34;;;;;;;1.37;0.70;;;;;;;22.85;52.05;99646.08;1720745;83;21473;-68
2022/07/12 07:39:01;;;;;;;1.30;0.70;;;;;;;22.92;50.88;99651.20;1720902;83;21063;-69
2022/07/12 07:41:28;;;;;;;1.57;0.68;;;;;;;23.11;51.70;99651.13;1720801;82;21020;-71
2022/07/12 07:43:55;;;;;;;2.33;0.90;;;;;;;23.41;50.91;99653.16;1720966;83;21620;-70
2022/07/12 07:46:21;;;;;;;1.35;0.80;;;;;;;23.79;49.57;99659.31;1720662;83;21098;-69
2022/07/12 07:48:48;;;;;;;3.72;0.70;;;;;;;24.18;49.77;99642.81;1721009;83;21071;-69
2022/07/12 07:51:14;;;;;;;2.60;0.80;;;;;;;24.40;47.94;99660.31;1720648;82;21118;-69
2022/07/12 07:53:41;;;;;;;1.45;0.80;;;;;;;24.46;45.66;99653.80;1720849;82;21088;-69
2022/07/12 07:56:07;;;;;;;2.30;0.80;;;;;;;24.36;46.29;99658.42;1720783;83;21980;-71
2022/07/12 07:58:34;;;;;;;1.12;0.53;;;;;;;24.15;47.00;99666.84;1685712;85;21061;-71
2022/07/12 08:01:01;;;;;;;1.62;0.50;;;;;;;24.06;46.19;99667.30;1720941;82;21077;-70
2022/07/12 08:03:27;;;;;;;2.37;0.65;;;;;;;23.87;45.54;99658.86;1720654;82;21077;-71
2022/07/12 08:05:57;;;;;;;2.42;0.80;;;;;;;23.88;45.03;99678.56;1685720;85;21080;-70
2022/07/12 08:08:24;;;;;;;1.60;0.82;;;;;;;24.00;46.50;99666.56;1720692;83;21265;-71
2022/07/12 08:10:51;;;;;;;1.37;0.70;;;;;;;24.27;46.54;99664.74;1720681;83;21519;-70
2022/07/12 08:13:21;;;;;;;2.40;0.70;;;;;;;24.43;44.68;99670.27;1720673;83;21041;-70
2022/07/12 08:15:48;;;;;;;3.47;0.80;;;;;;;24.32;44.38;99665.14;1721185;83;21062;-69
2022/07/12 08:18:15;;;;;;;1.82;0.98;;;;;;;24.00;44.69;99669.25;1720820;83;21101;-71
2022/07/12 08:20:41;;;;;;;1.72;0.85;;;;;;;23.87;46.33;99668.78;1685713;84;21532;-69
2022/07/12 08:23:08;;;;;;;1.45;0.68;;;;;;;24.01;46.12;99666.89;1720719;82;21033;-71
2022/07/12 08:25:36;;;;;;;4.65;0.90;;;;;;;24.38;45.91;99664.50;1720815;83;21041;-70
2022/07/12 08:28:03;;;;;;;2.85;0.85;;;;;;;24.63;45.09;99659.32;1720500;83;21074;-71
2022/07/12 08:30:30;;;;;;;5.72;0.90;;;;;;;24.83;44.72;99664.83;1685843;85;21100;-72
2022/07/12 08:32:56;;;;;;;1.65;0.80;;;;;;;25.06;43.33;99668.31;1720808;83;21616;-70
2022/07/12 08:35:23;;;;;;;3.60;0.80;;;;;;;25.06;43.60;99665.62;1685694;85;21028;-70
2022/07/12 08:37:50;;;;;;;2.27;0.70;;;;;;;24.55;42.55;99668.67;1720688;82;21117;-70
2022/07/12 08:40:16;;;;;;;2.45;0.90;;;;;;;23.99;44.24;99678.30;1721424;83;21144;-70
2022/07/12 08:42:43;;;;;;;2.72;0.90;;;;;;;23.65;45.38;99669.55;1691052;84;21048;-70
2022/07/12 08:45:11;;;;;;;1.75;0.70;;;;;;;23.63;46.08;99668.86;1691343;84;21228;-69
2022/07/12 08:47:37;;;;;;;2.40;0.80;;;;;;;23.74;46.35;99675.00;1691308;84;21120;-70
2022/07/12 08:50:18;;;;;;;0.57;0.50;;;;;;;23.72;42.68;99671.61;1691084;84;21060;-70
2022/07/12 08:52:47;;;;;;;1.00;0.62;;;;;;;23.55;44.40;99681.36;1691193;84;21025;-69
2022/07/12 08:55:25;;;;;;;0.93;0.53;;;;;;;23.30;44.63;99678.89;1691156;84;21135;-70
2022/07/12 08:57:54;;;;;;;2.00;0.62;;;;;;;23.05;45.08;99670.52;1691067;84;21224;-70
2022/07/12 09:00:22;;;;;;;1.98;0.50;;;;;;;22.98;45.97;99673.41;1691193;84;21082;-70
2022/07/12 09:02:57;;;;;;;1.45;0.60;;;;;;;23.06;45.32;99668.70;1691297;84;21092;-70
2022/07/12 09:05:27;;;;;;;1.07;0.78;;;;;;;23.25;46.08;99666.73;1691094;84;21060;-70
2022/07/12 09:08:08;;;;;;;2.42;0.70;;;;;;;23.55;45.69;99663.89;1691455;84;21061;-70
2022/07/12 09:10:54;;;;;;;3.22;0.78;;;;;;;23.84;44.79;99661.03;1691114;84;21148;-70
2022/07/12 09:13:21;;;;;;;2.22;0.90;;;;;;;24.10;46.07;99663.78;1691220;84;21071;-70
2022/07/12 09:15:50;;;;;;;2.58;0.70;;;;;;;24.44;44.70;99675.98;1691277;84;21062;-71
2022/07/12 09:18:22;;;;;;;1.07;0.70;;;;;;;24.40;42.49;99651.73;1691074;84;21091;-69
2022/07/12 09:20:52;;;;;;;3.52;0.68;;;;;;;24.50;43.23;99655.69;1690527;84;21075;-70
2022/07/12 09:23:19;;;;;;;1.20;0.70;;;;;;;24.66;43.21;99676.49;1691261;84;21571;-70
2022/07/12 09:25:47;;;;;;;2.20;0.72;;;;;;;24.99;42.35;99674.01;1690887;84;21029;-70
2022/07/12 09:28:14;;;;;;;1.47;0.60;;;;;;;25.19;41.92;99664.70;1691164;84;21089;-71
2022/07/12 09:30:49;;;;;;;1.70;0.80;;;;;;;25.48;39.99;99672.87;1691033;84;21024;-70
2022/07/12 09:36:15;;;;;;;1.30;0.70;;;;;;;25.91;40.83;99668.28;1691021;84;21792;-71
2022/07/12 09:39:00;;;;;;;1.17;0.50;;;;;;;26.36;39.42;99680.41;1691227;84;21024;-71
2022/07/12 09:41:26;;;;;;;1.25;0.60;;;;;;;26.69;35.79;99678.56;1684763;84;21621;-70
2022/07/12 09:43:53;;;;;;;1.90;0.60;;;;;;;26.73;36.81;99670.94;1713038;83;21064;-70
2022/07/12 09:46:20;;;;;;;2.47;0.70;;;;;;;26.71;36.58;99668.44;1713125;83;21055;-70
2022/07/12 09:48:47;;;;;;;0.70;0.50;;;;;;;26.70;36.66;99658.63;1713038;83;21795;-71
2022/07/12 09:51:16;;;;;;;1.02;0.50;;;;;;;26.54;35.81;99666.25;1712784;82;21585;-71
2022/07/12 09:53:47;;;;;;;0.62;0.45;;;;;;;26.42;36.69;99666.25;1713078;82;21057;-70
2022/07/12 09:56:17;;;;;;;0.75;0.50;;;;;;;26.43;37.16;99669.27;1678401;85;21565;-71
2022/07/12 09:58:55;;;;;;;0.90;0.50;;;;;;;26.53;36.41;99675.34;1712908;83;21046;-69
2022/07/12 10:01:23;;;;;;;4.15;0.90;;;;;;;26.64;36.39;99667.92;1713214;83;21085;-72
2022/07/12 10:03:50;;;;;;;1.72;0.40;;;;;;;26.49;37.02;99674.52;1678217;85;21093;-70
2022/07/12 10:06:27;;;;;;;2.83;0.30;;;;;;;26.65;37.08;99670.98;1678274;85;21002;-68
2022/07/12 10:08:56;;;;;;;0.95;0.40;;;;;;;26.69;35.31;99676.38;1712932;83;21120;-70
2022/07/12 10:11:25;;;;;;;1.52;0.50;;;;;;;26.02;35.63;99678.75;1678712;85;21071;-72
2022/07/12 10:13:53;;;;;;;2.67;0.50;;;;;;;25.69;36.17;99673.77;1713007;83;21155;-71
2022/07/12 10:16:26;;;;;;;1.52;0.72;;;;;;;25.94;36.58;99659.84;1678647;85;21097;-70
2022/07/12 10:19:32;;;;;;;0.72;0.50;;;;;;;26.23;36.28;99659.35;1713007;83;21081;-70
2022/07/12 10:22:00;;;;;;;0.80;0.50;;;;;;;26.30;34.89;99659.52;1678599;85;21076;-71
2022/07/12 10:24:47;;;;;;;0.53;0.50;;;;;;;25.72;35.49;99651.84;1678476;85;21044;-70
2022/07/12 10:27:20;;;;;;;0.70;0.60;;;;;;;25.44;36.91;99656.68;1678217;85;21094;-70
2022/07/12 10:29:51;;;;;;;1.60;0.50;;;;;;;25.74;37.92;99650.70;1713206;83;21055;-71
2022/07/12 10:32:35;;;;;;;0.95;0.50;;;;;;;26.20;36.31;99654.27;1678762;85;21056;-70
2022/07/12 10:35:07;;;;;;;0.75;0.50;;;;;;;26.65;35.92;99649.38;1678487;85;21030;-72
2022/07/12 10:37:35;;;;;;;0.75;0.53;;;;;;;26.85;35.04;99660.13;1712867;83;21105;-70
2022/07/12 10:40:20;;;;;;;0.95;0.50;;;;;;;26.43;35.14;99665.22;1678422;85;21135;-70
2022/07/12 10:43:08;;;;;;;0.80;0.40;;;;;;;26.05;34.73;99666.77;1684964;84;21002;-70
2022/07/12 10:45:40;;;;;;;2.47;0.70;;;;;;;25.81;35.44;99671.08;1720817;83;21604;-71
2022/07/12 10:48:10;;;;;;;1.47;0.65;;;;;;;25.59;37.07;99671.22;1720506;83;21081;-70
2022/07/12 10:50:51;;;;;;;0.95;0.60;;;;;;;25.30;37.16;99675.16;1684925;85;21009;-71
2022/07/12 10:56:14;;;;;;;0.50;0.47;;;;;;;24.27;39.56;99671.47;1795766;79;22514;-70
2022/07/12 10:58:49;;;;;;;1.72;0.95;;;;;;;23.91;39.85;99678.24;1756354;81;21298;-70
2022/07/12 11:01:30;;;;;;;2.08;0.60;;;;;;;23.86;40.34;99675.17;1756511;81;21595;-70
2022/07/12 11:04:09;;;;;;;4.83;1.25;;;;;;;23.50;42.52;99680.47;1756527;81;21089;-70
2022/07/12 11:06:38;;;;;;;2.50;0.75;;;;;;;23.29;42.79;99675.87;1756136;81;21061;-70
2022/07/12 11:09:08;;;;;;;1.70;0.90;;;;;;;23.23;42.78;99674.10;1756493;81;21050;-71
2022/07/12 11:11:50;;;;;;;1.42;0.85;;;;;;;23.18;44.06;99679.08;1756591;81;21581;-71
2022/07/12 11:14:24;;;;;;;1.80;0.72;;;;;;;22.93;47.13;99687.78;1756461;81;21252;-69
2022/07/12 11:16:52;;;;;;;1.45;0.93;;;;;;;22.37;50.48;99688.98;1756262;81;21613;-71
2022/07/12 11:19:27;;;;;;;1.42;0.90;;;;;;;21.92;50.72;99682.81;1756352;81;21021;-70
2022/07/12 11:21:57;;;;;;;7.90;1.10;;;;;;;21.64;52.01;99682.31;1755293;81;21651;-70
2022/07/12 11:24:32;;;;;;;5.42;1.00;;;;;;;21.61;52.70;99677.23;1756581;81;21108;-71
2022/07/12 11:26:59;;;;;;;2.17;1.25;;;;;;;21.81;52.77;99667.37;1789407;80;21190;-70
2022/07/12 11:29:26;;;;;;;2.58;0.80;;;;;;;21.89;54.07;99663.00;1790567;80;21033;-71
2022/07/12 11:32:04;;;;;;;1.95;0.93;;;;;;;21.72;53.36;99651.66;1790462;80;21023;-70
2022/07/12 11:34:30;;;;;;;1.17;0.90;;;;;;;21.41;54.58;99654.41;1790560;80;21044;-71
2022/07/12 11:36:59;;;;;;;1.60;0.82;;;;;;;21.26;53.19;99639.70;1790492;80;21049;-71
2022/07/12 11:39:34;;;;;;;3.55;0.65;;;;;;;21.14;54.11;99644.30;1790741;80;21941;-70
2022/07/12 11:42:02;;;;;;;3.37;0.98;;;;;;;20.98;55.29;99649.31;1790470;80;21445;-70
2022/07/12 11:44:50;;;;;;;3.72;0.90;;;;;;;20.86;56.67;99647.23;1790507;80;21064;-71
2022/07/12 11:47:19;;;;;;;7.03;0.90;;;;;;;20.72;57.01;99653.30;1790466;80;21021;-71